Hillsboro Beach, Florida
Current Conditions -  °F | °C
As of 2:53 AM on Thursday 23 Oct 2014 (Local Time) from KPMP Reporting Station
Broken Clouds Broken Clouds  
Wind Chill: 76°   Ceiling: 6000
Heat Index: 76°   Visibility: 8mi
Dew Point: 73°   Wind: 0mph
Humidity: 91%   Direction: NA
Pressure: 29.91"   Gusts: NA
Location:  26.2377°N, 80.0981°W
Report Text: KPMP 230653Z AUTO 00000KT 8SM SCT042 BKN060 24/23 A2991 RMK AO2 SLP128 T02440228
Loading
Personal Weather Stations






























Interactive Weather Map
Tropical Storm Tracking
New forecast layout! Learn more

10-Day Weather Forecast

Advertisements
Track Severe Weather on mobile